Dairy, Oregon
Current Conditions -  °F | °C
As of 6:53 AM on Friday 24 Oct 2014 (Local Time) from KLMT Reporting Station
Light Rain Light Rain  
Wind Chill: 43°   Ceiling: 1100
Heat Index: 43°   Visibility: 10mi
Dew Point: 41°   Wind: 3mph
Humidity: 93%   Direction: 320°NW
Pressure: 30.02"   Gusts: NA
Location:  42.23°N, 121.52°W
Report Text: KLMT 241353Z 32003KT 10SM -RA FEW003 OVC011 06/05 A3002 RMK AO2 RAE26B52 SLP158 P0001 T00610050
Loading
Personal Weather Stations






























Interactive Weather Map
Tropical Storm Tracking
New forecast layout! Learn more

10-Day Weather Forecast

Advertisements
Track Severe Weather on mobile